createdAt,value
2023-01-17T00:00:01.577Z,2.96
2023-01-17T00:02:31.298Z,2.98
2023-01-17T00:05:18.412Z,2.99
2023-01-17T00:08:05.795Z,2.97
2023-01-17T00:14:07.738Z,2.92
2023-01-17T00:16:40.338Z,2.95
2023-01-17T00:19:26.839Z,3.00
2023-01-17T00:22:13.367Z,3.01
2023-01-17T00:24:59.826Z,2.99
2023-01-17T00:27:28.064Z,2.95
2023-01-17T00:29:56.297Z,2.93
2023-01-17T00:32:33.199Z,2.91
2023-01-17T00:35:01.688Z,2.90
2023-01-17T00:37:29.996Z,2.87
2023-01-17T00:39:57.823Z,2.82
2023-01-17T00:42:26.047Z,2.75
2023-01-17T00:45:12.649Z,2.70
2023-01-17T00:47:59.128Z,2.69
2023-01-17T00:50:45.715Z,2.69
2023-01-17T00:53:32.281Z,2.71
2023-01-17T00:56:22.951Z,2.69
2023-01-17T00:59:09.607Z,2.65
2023-01-17T01:01:56.316Z,2.60
2023-01-17T01:04:42.922Z,2.58
2023-01-17T01:07:29.877Z,2.59
2023-01-17T01:10:16.439Z,2.61
2023-01-17T01:13:03.032Z,2.64
2023-01-17T01:16:12.189Z,2.63
2023-01-17T01:19:22.201Z,2.59
2023-01-17T01:22:09.588Z,2.57
2023-01-17T01:24:55.979Z,2.60
2023-01-17T01:27:42.604Z,2.63
2023-01-17T01:30:31.683Z,2.66
2023-01-17T01:33:15.189Z,2.70
2023-01-17T01:35:43.675Z,2.73
2023-01-17T01:38:12.001Z,2.74
2023-01-17T01:40:45.164Z,2.76
2023-01-17T01:43:23.107Z,2.80
2023-01-17T01:46:00.021Z,2.83
2023-01-17T01:49:06.043Z,2.81
2023-01-17T01:51:49.220Z,2.80
2023-01-17T01:54:23.704Z,2.80
2023-01-17T01:56:57.945Z,2.84
2023-01-17T02:00:06.351Z,2.85
2023-01-17T02:02:57.756Z,2.85
2023-01-17T02:05:29.400Z,2.96
2023-01-17T02:08:03.212Z,2.97
2023-01-17T02:10:34.727Z,2.96
2023-01-17T02:13:05.997Z,2.93
2023-01-17T02:15:42.052Z,2.88
2023-01-17T02:18:48.132Z,2.87
2023-01-17T02:21:22.823Z,2.86
2023-01-17T02:24:03.214Z,2.79
2023-01-17T02:26:44.906Z,2.70
2023-01-17T02:32:53.299Z,2.54
2023-01-17T02:35:47.374Z,2.49
2023-01-17T02:38:42.524Z,2.45
2023-01-17T02:41:21.149Z,2.41
2023-01-17T02:43:51.206Z,2.35
2023-01-17T02:46:19.509Z,2.26
2023-01-17T02:48:48.923Z,2.17
2023-01-17T02:51:45.203Z,2.10
2023-01-17T02:54:45.189Z,2.04
2023-01-17T03:01:27.112Z,1.89
2023-01-17T03:04:04.118Z,1.65
2023-01-17T03:06:41.474Z,1.42
2023-01-17T03:09:10.665Z,1.30
2023-01-17T03:11:39.037Z,1.28
2023-01-17T03:14:07.405Z,1.28
2023-01-17T03:16:36.337Z,1.28
2023-01-17T03:19:05.169Z,1.28
2023-01-17T03:21:33.666Z,1.25
2023-01-17T03:24:03.210Z,1.21
2023-01-17T03:26:31.838Z,1.18
2023-01-17T03:28:59.779Z,1.18
2023-01-17T03:31:27.755Z,1.18
2023-01-17T03:33:55.732Z,1.13
2023-01-17T03:36:23.799Z,1.13
2023-01-17T03:38:52.282Z,1.11
2023-01-17T03:41:22.188Z,1.08
2023-01-17T03:44:46.500Z,1.04
2023-01-17T03:47:15.092Z,0.98
2023-01-17T03:49:45.376Z,1.01
2023-01-17T03:52:13.748Z,1.03
2023-01-17T03:54:42.037Z,1.04
2023-01-17T03:57:10.723Z,1.00
2023-01-17T03:59:39.243Z,0.90
2023-01-17T04:02:07.475Z,0.73
2023-01-17T04:04:36.112Z,0.60
2023-01-17T04:08:00.500Z,0.53
2023-01-17T04:10:28.624Z,0.49
2023-01-17T04:12:57.330Z,0.46
2023-01-17T04:15:25.664Z,0.40
2023-01-17T04:17:53.774Z,0.33
2023-01-17T04:20:32.264Z,0.25
2023-01-17T04:23:01.161Z,0.18
2023-01-17T04:25:31.337Z,0.10
2023-01-17T04:31:17.455Z,-0.13
2023-01-17T04:33:46.019Z,-0.18
2023-01-17T04:37:30.008Z,-0.20
2023-01-17T04:39:58.405Z,-0.18
2023-01-17T04:42:26.753Z,-0.14
2023-01-17T04:44:55.195Z,-0.05
2023-01-17T04:47:24.459Z,0.05
2023-01-17T04:49:53.681Z,0.04
2023-01-17T04:52:55.067Z,-0.03
2023-01-17T04:55:23.719Z,-0.09
2023-01-17T04:57:51.939Z,-0.17
2023-01-17T05:00:23.907Z,-0.20
2023-01-17T05:02:52.360Z,-0.22
2023-01-17T05:05:20.890Z,-0.20
2023-01-17T05:07:56.515Z,-0.15
2023-01-17T05:10:47.241Z,-0.07
2023-01-17T05:13:52.216Z,0.03
2023-01-17T05:17:03.414Z,0.11
2023-01-17T05:24:11.793Z,0.33
2023-01-17T05:28:06.145Z,0.46
2023-01-17T05:33:44.433Z,0.30
2023-01-17T05:36:13.682Z,0.35
2023-01-17T05:38:41.936Z,0.45
2023-01-17T05:41:10.739Z,0.55
2023-01-17T05:43:38.964Z,0.66
2023-01-17T05:46:32.337Z,0.73
2023-01-17T05:49:00.866Z,0.79
2023-01-17T05:51:29.562Z,0.87
2023-01-17T05:53:57.685Z,0.96
2023-01-17T05:56:26.162Z,1.08
2023-01-17T05:58:54.144Z,1.17
2023-01-17T06:01:22.275Z,1.17
2023-01-17T06:03:51.161Z,1.18
2023-01-17T06:06:20.608Z,1.21
2023-01-17T06:08:49.141Z,1.26
2023-01-17T06:11:18.728Z,1.26
2023-01-17T06:13:48.863Z,1.34
2023-01-17T06:17:08.317Z,1.39
2023-01-17T06:19:36.903Z,1.33
2023-01-17T06:22:05.551Z,1.29
2023-01-17T06:24:34.091Z,1.19
2023-01-17T06:27:02.407Z,1.19
2023-01-17T06:29:30.558Z,1.24
2023-01-17T06:32:01.463Z,1.28
2023-01-17T06:34:29.928Z,1.34
2023-01-17T06:36:58.151Z,1.41
2023-01-17T06:39:26.950Z,1.45
2023-01-17T06:41:55.206Z,1.44
2023-01-17T06:45:43.305Z,1.48
2023-01-17T06:48:11.441Z,1.51
2023-01-17T06:50:39.457Z,1.51
2023-01-17T06:53:07.813Z,1.48
2023-01-17T06:55:39.594Z,1.44
2023-01-17T06:58:09.484Z,1.48
2023-01-17T07:00:40.302Z,1.54
2023-01-17T07:03:20.580Z,1.62
2023-01-17T07:05:49.333Z,1.69
2023-01-17T07:08:19.372Z,1.74
2023-01-17T07:10:48.491Z,1.79
2023-01-17T07:13:16.751Z,1.85
2023-01-17T07:15:44.689Z,1.92
2023-01-17T07:18:12.614Z,1.93
2023-01-17T07:20:43.935Z,1.80
2023-01-17T07:23:13.000Z,1.71
2023-01-17T07:25:41.032Z,1.66
2023-01-17T07:28:09.192Z,1.64
2023-01-17T07:30:37.285Z,1.67
2023-01-17T07:33:05.567Z,1.74
2023-01-17T07:35:33.628Z,1.80
2023-01-17T07:38:01.698Z,1.78
2023-01-17T07:40:29.796Z,1.75
2023-01-17T07:45:46.372Z,1.70
2023-01-17T07:48:14.257Z,1.72
2023-01-17T07:50:43.003Z,1.75
2023-01-17T07:53:11.479Z,1.81
2023-01-17T07:55:40.100Z,1.89
2023-01-17T07:58:08.171Z,1.95
2023-01-17T08:00:36.146Z,2.00
2023-01-17T08:03:05.850Z,2.00
2023-01-17T08:05:33.842Z,2.00
2023-01-17T08:08:01.723Z,1.99
2023-01-17T08:10:29.733Z,2.04
2023-01-17T08:12:57.633Z,2.06
2023-01-17T08:15:26.733Z,2.04
2023-01-17T08:17:54.739Z,2.03
2023-01-17T08:20:22.656Z,2.07
2023-01-17T08:22:54.559Z,2.13
2023-01-17T08:25:26.762Z,2.22
2023-01-17T08:27:58.836Z,2.29
2023-01-17T08:30:27.480Z,2.28
2023-01-17T08:32:55.775Z,2.28
2023-01-17T08:35:24.126Z,2.27
2023-01-17T08:37:55.058Z,2.30
2023-01-17T08:40:23.954Z,2.30
2023-01-17T08:43:00.286Z,2.33
2023-01-17T08:45:28.708Z,2.35
2023-01-17T08:47:58.839Z,2.38
2023-01-17T08:50:27.309Z,2.40
2023-01-17T08:53:01.091Z,2.40
2023-01-17T08:55:29.435Z,2.46
2023-01-17T08:57:57.441Z,2.54
2023-01-17T09:00:27.228Z,2.60
2023-01-17T09:02:55.219Z,2.67
2023-01-17T09:05:31.268Z,2.70
2023-01-17T09:08:05.033Z,2.71
2023-01-17T09:10:38.754Z,2.73
2023-01-17T09:13:13.747Z,2.78
2023-01-17T09:15:42.109Z,2.86
2023-01-17T09:18:09.990Z,2.89
2023-01-17T09:20:37.987Z,2.89
2023-01-17T09:23:13.501Z,2.90
2023-01-17T09:25:44.742Z,2.91
2023-01-17T09:28:12.785Z,2.96
2023-01-17T09:30:49.353Z,3.00
2023-01-17T09:33:17.911Z,3.05
2023-01-17T09:36:06.899Z,3.11
2023-01-17T09:42:28.109Z,3.20
2023-01-17T09:45:10.458Z,3.22
2023-01-17T09:47:48.985Z,3.24
2023-01-17T09:50:51.221Z,3.24
2023-01-17T09:53:29.281Z,3.25
2023-01-17T09:56:13.242Z,3.31
2023-01-17T10:02:16.774Z,3.24
2023-01-17T10:05:02.911Z,3.36
2023-01-17T10:08:12.089Z,3.30
2023-01-17T10:14:26.683Z,3.41
2023-01-17T10:17:24.404Z,3.44
2023-01-17T10:20:35.239Z,3.50
2023-01-17T10:23:28.101Z,3.58
2023-01-17T10:26:00.092Z,3.65
2023-01-17T10:28:41.980Z,3.71
2023-01-17T10:31:25.152Z,3.76
2023-01-17T10:34:39.745Z,3.82
2023-01-17T10:37:22.956Z,3.94
2023-01-17T10:40:16.205Z,3.98
2023-01-17T10:43:09.201Z,4.01
2023-01-17T10:45:54.549Z,4.03
2023-01-17T10:48:42.485Z,3.99
2023-01-17T10:51:19.505Z,4.05
2023-01-17T10:54:15.154Z,4.15
2023-01-17T10:56:43.434Z,4.23
2023-01-17T10:59:32.108Z,4.30
2023-01-17T11:02:41.850Z,4.34
2023-01-17T11:08:18.025Z,4.54
2023-01-17T11:10:57.386Z,4.56
2023-01-17T11:13:38.201Z,4.63
2023-01-17T11:16:16.727Z,4.72
2023-01-17T11:19:27.889Z,4.84
2023-01-17T11:22:05.453Z,4.94
2023-01-17T11:24:47.274Z,5.03
2023-01-17T11:27:30.486Z,5.08
2023-01-17T11:30:15.967Z,5.24
2023-01-17T11:32:57.585Z,6.45
2023-01-17T11:35:29.391Z,7.93
2023-01-17T11:37:59.310Z,8.56
2023-01-17T11:40:37.578Z,8.58
2023-01-17T11:43:11.280Z,8.52
2023-01-17T11:49:50.635Z,9.38
2023-01-17T11:52:21.275Z,10.01
2023-01-17T11:54:50.916Z,10.67
2023-01-17T11:57:32.897Z,11.23
2023-01-17T12:00:23.404Z,11.85
2023-01-17T12:03:03.453Z,12.37
2023-01-17T12:05:48.360Z,12.60
2023-01-17T12:08:28.332Z,12.59
2023-01-17T12:10:59.106Z,12.80
2023-01-17T12:14:02.888Z,12.88
2023-01-17T12:16:49.369Z,13.16
2023-01-17T12:20:14.979Z,12.80
2023-01-17T12:22:52.908Z,12.23
2023-01-17T12:25:54.591Z,12.81
2023-01-17T12:28:38.243Z,13.18
2023-01-17T12:31:23.239Z,13.50
2023-01-17T12:33:56.576Z,13.74
2023-01-17T12:36:33.244Z,13.71
2023-01-17T12:39:08.051Z,14.09
2023-01-17T12:41:45.725Z,13.91
2023-01-17T12:44:17.534Z,14.04
2023-01-17T12:46:56.267Z,14.34
2023-01-17T12:49:49.160Z,14.25
2023-01-17T12:52:25.034Z,14.54
2023-01-17T12:55:02.817Z,14.63
2023-01-17T12:58:07.080Z,14.33
2023-01-17T13:00:39.101Z,14.43
2023-01-17T13:03:46.927Z,14.65
2023-01-17T13:06:25.071Z,14.53
2023-01-17T13:08:57.928Z,14.59
2023-01-17T13:11:46.079Z,14.50
2023-01-17T13:14:14.127Z,14.27
2023-01-17T13:17:13.141Z,14.15
2023-01-17T13:19:52.147Z,14.10
2023-01-17T13:22:24.117Z,14.25
2023-01-17T13:25:00.436Z,14.05
2023-01-17T13:27:40.396Z,13.99
2023-01-17T13:30:32.757Z,13.65
2023-01-17T13:33:13.142Z,13.46
2023-01-17T13:36:16.888Z,13.26
2023-01-17T13:38:57.677Z,12.60
2023-01-17T13:41:34.778Z,12.39
2023-01-17T13:44:21.663Z,12.10
2023-01-17T13:46:56.684Z,11.85
2023-01-17T13:49:31.678Z,11.46
2023-01-17T13:52:19.735Z,11.28
2023-01-17T13:54:54.933Z,11.21
2023-01-17T13:57:29.192Z,11.38
2023-01-17T14:00:10.522Z,12.01
2023-01-17T14:02:39.192Z,12.61
2023-01-17T14:05:11.625Z,12.96
2023-01-17T14:07:55.966Z,13.40
2023-01-17T14:10:30.606Z,13.77
2023-01-17T14:12:59.117Z,13.69
2023-01-17T14:15:28.820Z,13.01
2023-01-17T14:18:02.397Z,12.55
2023-01-17T14:20:49.961Z,11.81
2023-01-17T14:23:26.255Z,11.99
2023-01-17T14:25:58.120Z,11.43
2023-01-17T14:28:26.092Z,10.68
2023-01-17T14:30:56.486Z,10.18
2023-01-17T14:33:36.077Z,9.93
2023-01-17T14:36:07.834Z,10.13
2023-01-17T14:38:42.897Z,10.00
2023-01-17T14:41:19.326Z,9.68
2023-01-17T14:43:49.615Z,9.40
2023-01-17T14:46:28.491Z,8.97
2023-01-17T14:49:06.157Z,8.50
2023-01-17T14:51:35.532Z,8.04
2023-01-17T14:54:14.646Z,7.59
2023-01-17T14:56:42.534Z,7.14
2023-01-17T14:59:17.446Z,6.84
2023-01-17T15:02:06.702Z,6.55
2023-01-17T15:04:39.670Z,6.29
2023-01-17T15:07:15.939Z,6.03
2023-01-17T15:09:45.222Z,5.80
2023-01-17T15:12:16.493Z,5.61
2023-01-17T15:14:46.633Z,5.44
2023-01-17T15:17:24.823Z,5.24
2023-01-17T15:22:35.349Z,4.89
2023-01-17T15:25:03.764Z,4.76
2023-01-17T15:27:32.286Z,4.64
2023-01-17T15:30:02.437Z,4.51
2023-01-17T15:32:33.324Z,4.42
2023-01-17T15:35:03.000Z,4.33
2023-01-17T15:37:39.152Z,4.22
2023-01-17T15:40:26.167Z,4.12
2023-01-17T15:42:58.739Z,4.01
2023-01-17T15:45:32.554Z,3.90
2023-01-17T15:48:39.153Z,3.80
2023-01-17T15:51:09.405Z,3.71
2023-01-17T15:53:40.160Z,3.62
2023-01-17T15:56:26.019Z,3.52
2023-01-17T15:58:54.040Z,3.40
2023-01-17T16:01:26.977Z,3.26
2023-01-17T16:03:55.642Z,3.10
2023-01-17T16:06:45.391Z,2.97
2023-01-17T16:09:23.947Z,2.80
2023-01-17T16:11:51.844Z,2.67
2023-01-17T16:14:20.050Z,2.54
2023-01-17T16:16:54.298Z,2.38
2023-01-17T16:19:22.703Z,2.24
2023-01-17T16:21:51.621Z,2.13
2023-01-17T16:24:19.779Z,2.00
2023-01-17T16:26:47.692Z,1.91
2023-01-17T16:29:15.691Z,1.78
2023-01-17T16:31:43.538Z,1.66
2023-01-17T16:34:12.918Z,1.55
2023-01-17T16:36:40.946Z,1.43
2023-01-17T16:39:13.565Z,1.25
2023-01-17T16:41:41.610Z,1.14
2023-01-17T16:44:09.880Z,1.08
2023-01-17T16:46:38.729Z,1.02
2023-01-17T16:49:06.770Z,0.92
2023-01-17T16:51:35.008Z,0.83
2023-01-17T16:54:03.020Z,0.80
2023-01-17T16:56:31.248Z,0.76
2023-01-17T16:58:59.186Z,0.73
2023-01-17T17:01:27.360Z,0.70
2023-01-17T17:03:55.362Z,0.63
2023-01-17T17:06:23.342Z,0.57
2023-01-17T17:08:51.367Z,0.55
2023-01-17T17:11:22.860Z,0.56
2023-01-17T17:13:51.878Z,0.58
2023-01-17T17:16:24.624Z,0.59
2023-01-17T17:18:59.756Z,0.60
2023-01-17T17:21:28.947Z,0.57
2023-01-17T17:23:59.453Z,0.53
2023-01-17T17:26:31.406Z,0.46
2023-01-17T17:29:00.738Z,0.45
2023-01-17T17:31:55.388Z,0.47
2023-01-17T17:34:25.850Z,0.44
2023-01-17T17:36:55.676Z,0.34
2023-01-17T17:39:24.169Z,0.27
2023-01-17T17:41:52.261Z,0.29
2023-01-17T17:44:20.328Z,0.36
2023-01-17T17:46:49.703Z,0.42
2023-01-17T17:49:17.713Z,0.46
2023-01-17T17:51:45.699Z,0.42
2023-01-17T17:54:15.905Z,0.41
2023-01-17T17:56:47.553Z,0.40
2023-01-17T17:59:20.237Z,0.45
2023-01-17T18:01:48.746Z,0.56
2023-01-17T18:04:16.874Z,0.67
2023-01-17T18:06:45.008Z,0.72
2023-01-17T18:09:13.606Z,0.68
2023-01-17T18:11:43.284Z,0.77
2023-01-17T18:14:14.525Z,0.80
2023-01-17T18:16:44.927Z,0.86
2023-01-17T18:19:15.849Z,0.94
2023-01-17T18:21:43.870Z,1.02
2023-01-17T18:24:14.734Z,1.05
2023-01-17T18:26:51.167Z,1.05
2023-01-17T18:29:21.567Z,1.11
2023-01-17T18:31:51.051Z,1.18
2023-01-17T18:34:27.165Z,1.25
2023-01-17T18:36:58.029Z,1.37
2023-01-17T18:39:29.662Z,1.48
2023-01-17T18:42:09.102Z,1.58
2023-01-17T18:48:45.378Z,1.74
2023-01-17T18:51:16.720Z,1.78
2023-01-17T18:53:46.392Z,1.80
2023-01-17T18:56:18.198Z,1.82
2023-01-17T18:58:50.402Z,1.86
2023-01-17T19:01:20.988Z,1.87
2023-01-17T19:03:51.376Z,1.89
2023-01-17T19:06:25.960Z,1.85
2023-01-17T19:08:54.845Z,1.84
2023-01-17T19:11:23.976Z,1.85
2023-01-17T19:13:53.255Z,1.84
2023-01-17T19:16:29.594Z,1.85
2023-01-17T19:19:02.690Z,1.86
2023-01-17T19:21:31.825Z,1.89
2023-01-17T19:24:00.195Z,1.95
2023-01-17T19:26:28.818Z,2.03
2023-01-17T19:29:00.936Z,2.08
2023-01-17T19:31:30.466Z,2.09
2023-01-17T19:33:59.772Z,2.11
2023-01-17T19:36:33.856Z,2.10
2023-01-17T19:39:06.140Z,2.10
2023-01-17T19:41:36.330Z,2.09
2023-01-17T19:44:09.615Z,2.08
2023-01-17T19:46:38.186Z,2.07
2023-01-17T19:49:07.730Z,2.09
2023-01-17T19:51:36.353Z,2.15
2023-01-17T19:54:06.541Z,2.20
2023-01-17T19:56:35.175Z,2.23
2023-01-17T19:59:03.635Z,2.25
2023-01-17T20:01:33.723Z,2.28
2023-01-17T20:04:03.483Z,2.31
2023-01-17T20:06:34.644Z,2.33
2023-01-17T20:09:03.406Z,2.36
2023-01-17T20:11:31.947Z,2.36
2023-01-17T20:14:00.461Z,2.37
2023-01-17T20:16:31.504Z,2.38
2023-01-17T20:19:00.285Z,2.43
2023-01-17T20:21:29.613Z,2.48
2023-01-17T20:23:59.492Z,2.51
2023-01-17T20:26:36.379Z,2.52
2023-01-17T20:29:10.626Z,2.53
2023-01-17T20:31:41.174Z,2.55
2023-01-17T20:34:12.149Z,2.56
2023-01-17T20:36:43.730Z,2.57
2023-01-17T20:39:14.155Z,2.59
2023-01-17T20:41:44.721Z,2.61
2023-01-17T20:44:15.666Z,2.66
2023-01-17T20:46:44.601Z,2.72
2023-01-17T20:49:15.755Z,2.78
2023-01-17T20:51:45.292Z,2.78
2023-01-17T20:54:16.181Z,2.74
2023-01-17T20:56:47.293Z,2.66
2023-01-17T20:59:18.031Z,2.56
2023-01-17T21:01:46.491Z,2.44
2023-01-17T21:05:03.907Z,2.37
2023-01-17T21:07:32.187Z,2.37
2023-01-17T21:10:00.140Z,2.34
2023-01-17T21:12:28.130Z,2.29
2023-01-17T21:15:36.049Z,2.25
2023-01-17T21:18:04.000Z,2.21
2023-01-17T21:20:34.798Z,2.19
2023-01-17T21:23:02.732Z,2.19
2023-01-17T21:25:30.632Z,2.22
2023-01-17T21:27:58.944Z,2.27
2023-01-17T21:30:27.083Z,2.31
2023-01-17T21:32:55.099Z,2.31
2023-01-17T21:35:23.159Z,2.29
2023-01-17T21:37:51.543Z,2.26
2023-01-17T21:40:19.823Z,2.23
2023-01-17T21:42:48.451Z,2.23
2023-01-17T21:45:16.762Z,2.26
2023-01-17T21:47:44.989Z,2.28
2023-01-17T21:50:25.085Z,2.29
2023-01-17T21:53:03.654Z,2.28
2023-01-17T21:55:50.524Z,2.26
2023-01-17T21:58:37.520Z,2.26
2023-01-17T22:01:17.779Z,2.27
2023-01-17T22:03:49.543Z,2.31
2023-01-17T22:06:19.545Z,2.32
2023-01-17T22:08:47.773Z,2.33
2023-01-17T22:11:18.654Z,2.33
2023-01-17T22:13:46.746Z,2.33
2023-01-17T22:16:17.013Z,2.37
2023-01-17T22:18:45.891Z,2.42
2023-01-17T22:21:22.605Z,2.49
2023-01-17T22:23:56.522Z,2.54
2023-01-17T22:27:44.420Z,2.55
2023-01-17T22:30:13.193Z,2.54
2023-01-17T22:32:41.743Z,2.52
2023-01-17T22:35:09.721Z,2.52
2023-01-17T22:37:37.651Z,2.56
2023-01-17T22:40:06.158Z,2.60
2023-01-17T22:42:34.561Z,2.66
2023-01-17T22:45:02.553Z,2.71
2023-01-17T22:47:30.793Z,2.72
2023-01-17T22:49:58.988Z,2.72
2023-01-17T22:52:26.959Z,2.76
2023-01-17T22:54:54.913Z,2.79
2023-01-17T22:57:23.353Z,2.84
2023-01-17T22:59:51.389Z,2.88
2023-01-17T23:02:19.357Z,2.93
2023-01-17T23:04:49.052Z,2.97
2023-01-17T23:07:17.127Z,2.96
2023-01-17T23:09:45.014Z,2.96
2023-01-17T23:12:12.962Z,2.93
2023-01-17T23:14:59.469Z,2.91
2023-01-17T23:17:45.611Z,2.94
2023-01-17T23:20:13.535Z,2.96
2023-01-17T23:22:41.495Z,2.96
2023-01-17T23:25:12.075Z,2.95
2023-01-17T23:28:00.855Z,2.94
2023-01-17T23:30:34.609Z,2.90
2023-01-17T23:33:08.298Z,2.85
2023-01-17T23:35:41.707Z,2.83
2023-01-17T23:38:28.625Z,2.81
2023-01-17T23:41:20.003Z,2.83
2023-01-17T23:43:56.260Z,2.83
2023-01-17T23:46:25.716Z,2.80
2023-01-17T23:48:55.206Z,2.78
2023-01-17T23:51:23.348Z,2.74
2023-01-17T23:53:57.463Z,2.72
2023-01-17T23:56:25.515Z,2.71
2023-01-17T23:58:53.382Z,2.67
